Aviation Digital Data Service (ADDS)

Output produced by METARs form (0035 UTC 23 March 2019)
found at http://www.aviationweather.gov/metar/data/
 
Forecast for: GBYD (BANJUL/YUNDUM IN, GM)
Text: TAF GBYD 222330Z 2300/2406 30008KT 9999 SCT010
Forecast period: 0000 UTC 23 March 2019 to 0600 UTC 24 March 2019
Forecast type: FROM: standard forecast or significant change
Winds: from the WNW (300 degrees) at 9 MPH (8 knots; 4.1 m/s)
Visibility: 6 or more miles 10+ km)
Ceiling: at least 12,000 feet AGL
Clouds: scattered clouds at 1000 feet AGL
Weather: no significant weather forecast for this period